Time;durP1;ratioP1;P1;durP2;ratioP2;P2;SDS_P1;SDS_P2;PMS_P1;PMS_P2;Temp;Humidity;BMP_temperature;BMP_pressure;BME280_temperature;BME280_humidity;BME280_pressure;Samples;Min_cycle;Max_cycle;Signal;HPM_P1;HPM_P2
2022/02/12 00:02:07;;;;;;;;;;;2.90;91.30;;;;;;5044462;28;19916;-69
2022/02/12 00:04:33;;;;;;;;;;;2.90;91.50;;;;;;5061080;28;20234;-69
2022/02/12 00:06:58;;;;;;;;;;;2.80;91.70;;;;;;5062379;28;19913;-69
2022/02/12 00:09:26;;;;;;;;;;;2.70;91.80;;;;;;5062332;28;19916;-69
2022/02/12 00:11:52;;;;;;;;;;;2.50;92.00;;;;;;5062066;28;19920;-69
2022/02/12 00:14:18;;;;;;;;;;;2.50;92.10;;;;;;5044387;28;20005;-69
2022/02/12 00:16:43;;;;;;;;;;;2.40;92.20;;;;;;5044393;28;19912;-69
2022/02/12 00:19:09;;;;;;;;;;;2.40;92.40;;;;;;5044015;28;19920;-69
2022/02/12 00:21:35;;;;;;;;;;;2.30;92.50;;;;;;5061804;28;19908;-69
2022/02/12 00:24:00;;;;;;;;;;;2.30;92.50;;;;;;5061925;28;19959;-69
2022/02/12 00:26:26;;;;;;;;;;;2.30;92.60;;;;;;5044142;28;19909;-69
2022/02/12 00:28:52;;;;;;;;;;;2.20;92.70;;;;;;5044215;28;20261;-69
2022/02/12 00:31:17;;;;;;;;;;;2.20;92.80;;;;;;5059746;28;19915;-68
2022/02/12 00:33:43;;;;;;;;;;;2.20;92.80;;;;;;5043894;28;19931;-69
2022/02/12 00:36:09;;;;;;;;;;;2.20;92.90;;;;;;5043920;28;19920;-69
2022/02/12 00:38:34;;;;;;;;;;;2.20;92.80;;;;;;5043898;28;19920;-69
2022/02/12 00:41:00;;;;;;;;;;;2.10;92.90;;;;;;5060732;28;20204;-69
2022/02/12 00:43:26;;;;;;;;;;;2.10;92.90;;;;;;5044153;28;19916;-69
2022/02/12 00:45:52;;;;;;;;;;;2.10;92.90;;;;;;5061845;28;19932;-69
2022/02/12 00:48:18;;;;;;;;;;;2.00;92.90;;;;;;5043847;28;20160;-69
2022/02/12 00:50:44;;;;;;;;;;;1.90;93.10;;;;;;5061444;28;19909;-69
2022/02/12 00:53:09;;;;;;;;;;;1.90;93.20;;;;;;5060439;28;20423;-69
2022/02/12 00:55:35;;;;;;;;;;;1.80;93.30;;;;;;5061515;28;19928;-69
2022/02/12 00:58:01;;;;;;;;;;;1.90;93.20;;;;;;5043742;28;19917;-69
2022/02/12 01:00:27;;;;;;;;;;;1.80;93.30;;;;;;5061508;28;20223;-69
2022/02/12 01:02:53;;;;;;;;;;;1.70;93.40;;;;;;5061334;28;19909;-69
2022/02/12 01:05:18;;;;;;;;;;;1.70;93.70;;;;;;5042061;28;19909;-69
2022/02/12 01:07:44;;;;;;;;;;;1.60;93.70;;;;;;5043476;28;19915;-69
2022/02/12 01:10:10;;;;;;;;;;;1.60;93.60;;;;;;5061483;28;20043;-69
2022/02/12 01:12:35;;;;;;;;;;;1.50;93.80;;;;;;5043308;28;19984;-69
2022/02/12 01:15:02;;;;;;;;;;;1.40;94.00;;;;;;5043517;28;19970;-69
2022/02/12 01:17:30;;;;;;;;;;;1.40;94.20;;;;;;5043615;28;19919;-69
2022/02/12 01:19:56;;;;;;;;;;;1.40;94.30;;;;;;5061062;28;20131;-69
2022/02/12 01:22:24;;;;;;;;;;;1.30;94.30;;;;;;5043289;28;19909;-69
2022/02/12 01:24:50;;;;;;;;;;;1.30;94.20;;;;;;5061214;28;19908;-69
2022/02/12 01:27:16;;;;;;;;;;;1.30;94.30;;;;;;5043419;28;19917;-69
2022/02/12 01:29:42;;;;;;;;;;;1.20;94.40;;;;;;5043339;28;19962;-69
2022/02/12 01:32:08;;;;;;;;;;;1.10;94.60;;;;;;5042760;28;20316;-69
2022/02/12 01:34:34;;;;;;;;;;;1.10;94.70;;;;;;5042891;28;19916;-69
2022/02/12 01:37:01;;;;;;;;;;;1.00;94.90;;;;;;5060892;28;19951;-69
2022/02/12 01:39:27;;;;;;;;;;;0.90;95.10;;;;;;5030925;28;20069;-69
2022/02/12 01:41:53;;;;;;;;;;;0.80;95.10;;;;;;5041732;28;19909;-68
2022/02/12 01:44:27;;;;;;;;;;;0.80;95.10;;;;;;5047514;28;20188;-68
2022/02/12 01:46:52;;;;;;;;;;;0.80;95.20;;;;;;5047550;28;19980;-68
2022/02/12 01:49:18;;;;;;;;;;;0.80;95.30;;;;;;5047148;28;19936;-68
2022/02/12 01:51:44;;;;;;;;;;;0.80;95.30;;;;;;5046127;28;19908;-69
2022/02/12 01:54:09;;;;;;;;;;;0.80;95.20;;;;;;5029878;28;19913;-69
2022/02/12 01:56:35;;;;;;;;;;;0.70;95.10;;;;;;5047515;28;19956;-69
2022/02/12 01:59:01;;;;;;;;;;;0.70;95.10;;;;;;5047210;28;19956;-69
2022/02/12 02:01:26;;;;;;;;;;;0.60;95.20;;;;;;5047233;28;20116;-69
2022/02/12 02:03:53;;;;;;;;;;;0.60;95.20;;;;;;5048043;28;20382;-68
2022/02/12 02:06:19;;;;;;;;;;;0.60;95.40;;;;;;5032387;28;19908;-69
2022/02/12 02:08:45;;;;;;;;;;;0.60;95.40;;;;;;5046615;28;19920;-68
2022/02/12 02:11:11;;;;;;;;;;;0.40;95.80;;;;;;5041817;28;19917;-69
2022/02/12 02:13:36;;;;;;;;;;;0.30;96.10;;;;;;5032932;28;20207;-69
2022/02/12 02:16:08;;;;;;;;;;;0.30;96.10;;;;;;5067558;28;20227;-69
2022/02/12 02:18:34;;;;;;;;;;;0.30;96.00;;;;;;5050191;28;19984;-69
2022/02/12 02:20:59;;;;;;;;;;;0.20;96.30;;;;;;5049806;28;19936;-69
2022/02/12 02:23:25;;;;;;;;;;;0.20;96.60;;;;;;5050414;28;20223;-69
2022/02/12 02:25:51;;;;;;;;;;;0.20;96.60;;;;;;5050240;28;19923;-69
2022/02/12 02:28:16;;;;;;;;;;;0.20;96.60;;;;;;5049648;28;19916;-68
2022/02/12 02:30:42;;;;;;;;;;;0.20;96.50;;;;;;5067152;28;20215;-69
2022/02/12 02:33:08;;;;;;;;;;;0.20;96.50;;;;;;5066921;28;19908;-69
2022/02/12 02:35:34;;;;;;;;;;;0.10;96.70;;;;;;5066918;28;19920;-69
2022/02/12 02:38:07;;;;;;;;;;;0.10;96.60;;;;;;5068262;28;19920;-69
2022/02/12 02:40:33;;;;;;;;;;;0.10;96.70;;;;;;5050477;28;19916;-69
2022/02/12 02:42:58;;;;;;;;;;;0.10;96.70;;;;;;5049850;28;19913;-69
2022/02/12 02:45:24;;;;;;;;;;;0.10;96.60;;;;;;5049351;28;19917;-69
2022/02/12 02:47:50;;;;;;;;;;;0.10;96.60;;;;;;5066977;28;19909;-69
2022/02/12 02:56:01;;;;;;;;;;;0.00;96.80;;;;;;5063586;28;20019;-69
2022/02/12 02:58:33;;;;;;;;;;;-0.10;96.80;;;;;;5047720;28;20107;-69
2022/02/12 03:01:00;;;;;;;;;;;-0.10;96.90;;;;;;5045726;28;19980;-69
2022/02/12 03:03:26;;;;;;;;;;;-0.10;97.00;;;;;;5029241;28;19909;-69
2022/02/12 03:05:52;;;;;;;;;;;0.00;96.80;;;;;;5028217;28;19963;-68
2022/02/12 03:08:17;;;;;;;;;;;0.10;96.60;;;;;;5063681;28;20096;-69
2022/02/12 03:10:43;;;;;;;;;;;-0.10;96.90;;;;;;5045440;28;19943;-69
2022/02/12 03:13:09;;;;;;;;;;;-0.20;97.10;;;;;;5063475;28;20296;-69
2022/02/12 03:15:39;;;;;;;;;;;-0.20;97.10;;;;;;5045579;28;19928;-69
2022/02/12 03:18:05;;;;;;;;;;;-0.30;97.20;;;;;;5045708;28;19955;-69
2022/02/12 03:20:31;;;;;;;;;;;-0.30;97.30;;;;;;5063164;28;19909;-69
2022/02/12 03:22:57;;;;;;;;;;;-0.40;97.40;;;;;;5063174;28;20152;-69
2022/02/12 03:25:22;;;;;;;;;;;-0.40;97.40;;;;;;5063320;28;19913;-69
2022/02/12 03:27:53;;;;;;;;;;;-0.30;97.30;;;;;;5045329;28;19967;-69
2022/02/12 03:30:19;;;;;;;;;;;-0.30;97.40;;;;;;5028921;28;19940;-69
2022/02/12 03:32:45;;;;;;;;;;;-0.30;97.30;;;;;;5044922;28;19916;-69
2022/02/12 03:35:11;;;;;;;;;;;-0.20;97.10;;;;;;5062905;28;19909;-68
2022/02/12 03:37:37;;;;;;;;;;;-0.10;96.80;;;;;;5062951;28;19912;-68
2022/02/12 03:40:04;;;;;;;;;;;-0.10;96.70;;;;;;5063060;28;19908;-69
2022/02/12 03:42:29;;;;;;;;;;;-0.20;96.80;;;;;;5063040;28;19917;-69
2022/02/12 03:44:55;;;;;;;;;;;-0.30;97.00;;;;;;5062969;28;19908;-68
2022/02/12 03:47:21;;;;;;;;;;;-0.30;97.00;;;;;;5061663;28;20211;-70
2022/02/12 03:49:46;;;;;;;;;;;-0.40;97.10;;;;;;5062733;28;19943;-70
2022/02/12 03:52:12;;;;;;;;;;;-0.50;97.30;;;;;;5044721;28;20243;-70
2022/02/12 03:54:38;;;;;;;;;;;-0.40;97.30;;;;;;5044803;28;19943;-70
2022/02/12 03:57:03;;;;;;;;;;;-0.50;97.40;;;;;;5044894;28;20169;-70
2022/02/12 03:59:29;;;;;;;;;;;-0.50;97.30;;;;;;5016382;28;20035;-71
2022/02/12 04:01:55;;;;;;;;;;;-0.60;97.30;;;;;;5041121;28;20079;-71
2022/02/12 04:04:20;;;;;;;;;;;-0.60;97.30;;;;;;5047045;28;19920;-70
2022/02/12 04:06:46;;;;;;;;;;;-0.70;97.50;;;;;;5044247;28;19909;-70
2022/02/12 04:09:12;;;;;;;;;;;-0.70;97.60;;;;;;5062496;28;19931;-70
2022/02/12 04:11:37;;;;;;;;;;;-0.70;97.70;;;;;;5062136;28;19954;-69
2022/02/12 04:14:03;;;;;;;;;;;-0.70;97.70;;;;;;5062448;28;19908;-69
2022/02/12 04:16:29;;;;;;;;;;;-0.80;97.80;;;;;;5044417;28;19921;-69
2022/02/12 04:18:54;;;;;;;;;;;-0.80;98.00;;;;;;5061380;28;19947;-69
2022/02/12 04:21:20;;;;;;;;;;;-0.60;97.70;;;;;;5061693;28;20116;-69
2022/02/12 04:23:46;;;;;;;;;;;-0.50;97.40;;;;;;5044270;28;19908;-69
2022/02/12 04:26:12;;;;;;;;;;;-0.50;97.20;;;;;;5044356;28;19928;-69
2022/02/12 04:28:38;;;;;;;;;;;-0.60;97.30;;;;;;5062148;28;19909;-69
2022/02/12 04:31:04;;;;;;;;;;;-0.70;97.40;;;;;;5044000;28;19944;-69
2022/02/12 04:33:30;;;;;;;;;;;-0.70;97.50;;;;;;5062165;28;20164;-69
2022/02/12 04:35:56;;;;;;;;;;;-0.80;97.50;;;;;;5061784;28;19955;-69
2022/02/12 04:38:21;;;;;;;;;;;-0.80;97.50;;;;;;5043955;28;19927;-69
2022/02/12 04:40:47;;;;;;;;;;;-0.90;97.70;;;;;;5042814;28;20120;-69
2022/02/12 04:43:13;;;;;;;;;;;-1.00;97.80;;;;;;5061895;28;19915;-69
2022/02/12 04:45:38;;;;;;;;;;;-1.00;97.80;;;;;;5044032;28;20200;-71
2022/02/12 04:48:04;;;;;;;;;;;-1.00;97.80;;;;;;5027477;28;19983;-70
2022/02/12 04:50:30;;;;;;;;;;;-1.00;97.80;;;;;;5043590;28;19927;-70
2022/02/12 04:52:55;;;;;;;;;;;-0.90;97.50;;;;;;5043714;28;19951;-70
2022/02/12 04:55:21;;;;;;;;;;;-1.00;97.60;;;;;;5043840;28;19912;-70
2022/02/12 04:57:47;;;;;;;;;;;-1.10;97.70;;;;;;5061549;28;19909;-70
2022/02/12 05:00:13;;;;;;;;;;;-1.10;97.80;;;;;;5043753;28;19944;-68
2022/02/12 05:02:41;;;;;;;;;;;-1.20;98.00;;;;;;5043445;28;19912;-68
2022/02/12 05:05:08;;;;;;;;;;;-1.20;98.10;;;;;;5060005;28;20004;-69
2022/02/12 05:07:33;;;;;;;;;;;-1.20;98.20;;;;;;5043550;28;19916;-69
2022/02/12 05:09:59;;;;;;;;;;;-1.20;98.20;;;;;;5043560;28;20198;-69
2022/02/12 05:12:25;;;;;;;;;;;-1.30;98.10;;;;;;5042390;28;19908;-69
2022/02/12 05:14:51;;;;;;;;;;;-1.30;98.20;;;;;;5043260;28;19966;-71
2022/02/12 05:17:17;;;;;;;;;;;-1.30;98.40;;;;;;5042944;28;19923;-71
2022/02/12 05:19:42;;;;;;;;;;;-1.30;98.50;;;;;;5043426;28;19909;-70
2022/02/12 05:22:08;;;;;;;;;;;-1.30;98.70;;;;;;5026630;28;20035;-69
2022/02/12 05:24:33;;;;;;;;;;;-1.20;98.60;;;;;;5061146;28;19909;-69
2022/02/12 05:26:59;;;;;;;;;;;-1.10;98.30;;;;;;5061215;28;19917;-69
2022/02/12 05:29:25;;;;;;;;;;;-1.10;98.30;;;;;;5060870;28;19932;-69
2022/02/12 05:31:50;;;;;;;;;;;-1.10;98.50;;;;;;5060936;28;19936;-69
2022/02/12 05:34:17;;;;;;;;;;;-1.00;98.50;;;;;;5061059;28;19909;-70
2022/02/12 05:36:42;;;;;;;;;;;-1.00;98.30;;;;;;5042191;28;20042;-70
2022/02/12 05:39:09;;;;;;;;;;;-1.00;98.30;;;;;;5043093;28;19913;-70
2022/02/12 05:41:36;;;;;;;;;;;-1.00;98.40;;;;;;5060734;28;19921;-70
2022/02/12 05:44:01;;;;;;;;;;;-1.00;98.50;;;;;;5060722;28;20216;-70
2022/02/12 05:46:27;;;;;;;;;;;-1.00;98.50;;;;;;5060865;28;19916;-70
2022/02/12 05:48:53;;;;;;;;;;;-1.00;98.50;;;;;;5059594;28;19912;-70
2022/02/12 05:51:20;;;;;;;;;;;-0.90;98.50;;;;;;5042817;28;20264;-70
2022/02/12 05:53:46;;;;;;;;;;;-0.90;98.40;;;;;;5043353;28;19952;-70
2022/02/12 05:56:12;;;;;;;;;;;-0.90;98.40;;;;;;5042975;28;19916;-69
2022/02/12 05:58:38;;;;;;;;;;;-0.90;98.40;;;;;;5060629;28;19909;-69
2022/02/12 06:01:03;;;;;;;;;;;-0.90;98.40;;;;;;5042820;28;19909;-69
2022/02/12 06:03:29;;;;;;;;;;;-0.90;98.30;;;;;;5060837;28;19947;-70
2022/02/12 06:05:55;;;;;;;;;;;-0.90;98.40;;;;;;5059531;28;19971;-69
2022/02/12 06:08:20;;;;;;;;;;;-0.90;98.30;;;;;;5060616;28;19909;-70
2022/02/12 06:10:46;;;;;;;;;;;-0.90;98.10;;;;;;5042699;28;20218;-70
2022/02/12 06:13:12;;;;;;;;;;;-1.00;98.10;;;;;;5042806;28;19908;-70
2022/02/12 06:15:38;;;;;;;;;;;-1.10;98.20;;;;;;5041902;28;19966;-71
2022/02/12 06:18:04;;;;;;;;;;;-1.10;98.30;;;;;;5042636;28;19912;-71
2022/02/12 06:20:29;;;;;;;;;;;-0.90;98.00;;;;;;5060478;28;19921;-70
2022/02/12 06:22:55;;;;;;;;;;;-0.90;97.70;;;;;;5060094;28;19909;-70
2022/02/12 06:25:21;;;;;;;;;;;-0.90;97.50;;;;;;5042692;28;20003;-70
2022/02/12 06:27:47;;;;;;;;;;;-0.90;97.50;;;;;;5060437;28;19983;-70
2022/02/12 06:30:12;;;;;;;;;;;-1.00;97.70;;;;;;5063022;28;19946;-70
2022/02/12 06:32:38;;;;;;;;;;;-1.10;97.80;;;;;;5044762;28;19909;-70
2022/02/12 06:35:04;;;;;;;;;;;-1.10;97.90;;;;;;5046251;28;19917;-69
2022/02/12 06:37:30;;;;;;;;;;;-1.10;97.70;;;;;;5045907;28;19944;-69
2022/02/12 06:39:56;;;;;;;;;;;-1.10;97.70;;;;;;5064014;28;19920;-69
2022/02/12 06:42:22;;;;;;;;;;;-1.10;97.70;;;;;;5045015;28;19969;-67
2022/02/12 06:44:48;;;;;;;;;;;-1.20;97.80;;;;;;5063761;28;20213;-67
2022/02/12 06:47:13;;;;;;;;;;;-1.30;98.00;;;;;;5063953;28;19967;-71
2022/02/12 06:49:39;;;;;;;;;;;-1.40;98.20;;;;;;5046117;28;19939;-69
2022/02/12 06:52:05;;;;;;;;;;;-1.40;98.30;;;;;;5044660;28;20042;-69
2022/02/12 06:54:31;;;;;;;;;;;-1.40;98.30;;;;;;5063820;28;20203;-69
2022/02/12 06:56:57;;;;;;;;;;;-1.40;98.40;;;;;;5046047;28;19958;-69
2022/02/12 06:59:23;;;;;;;;;;;-1.40;98.50;;;;;;5046094;28;20004;-70
2022/02/12 07:01:49;;;;;;;;;;;-1.40;98.50;;;;;;5044857;28;19955;-69
2022/02/12 07:04:14;;;;;;;;;;;-1.40;98.50;;;;;;5063773;28;19923;-70
2022/02/12 07:06:40;;;;;;;;;;;-1.40;98.60;;;;;;5050514;28;19920;-70
2022/02/12 07:09:06;;;;;;;;;;;-1.30;98.60;;;;;;5045594;28;19913;-70
2022/02/12 07:11:33;;;;;;;;;;;-1.40;98.60;;;;;;5045393;28;19929;-70
2022/02/12 07:13:58;;;;;;;;;;;-1.30;98.60;;;;;;5063585;28;19912;-69
2022/02/12 07:16:24;;;;;;;;;;;-1.30;98.40;;;;;;5043841;28;19928;-70
2022/02/12 07:18:50;;;;;;;;;;;-1.30;98.50;;;;;;5063308;28;19916;-69
2022/02/12 07:21:16;;;;;;;;;;;-1.20;98.30;;;;;;5045161;28;20204;-68
2022/02/12 07:23:41;;;;;;;;;;;-1.20;98.40;;;;;;5045481;28;19924;-69
2022/02/12 07:26:08;;;;;;;;;;;-1.10;98.50;;;;;;5063434;28;20183;-69
2022/02/12 07:28:33;;;;;;;;;;;-1.20;98.50;;;;;;5063030;28;19988;-69
2022/02/12 07:30:59;;;;;;;;;;;-1.10;98.50;;;;;;5062794;28;19970;-69
2022/02/12 07:33:26;;;;;;;;;;;-1.00;98.30;;;;;;5062583;28;19944;-69
2022/02/12 07:35:52;;;;;;;;;;;-1.00;98.30;;;;;;5045422;28;19970;-68
2022/02/12 07:38:18;;;;;;;;;;;-0.90;98.20;;;;;;5045211;28;19935;-69
2022/02/12 07:40:44;;;;;;;;;;;-0.90;98.20;;;;;;5045022;28;19983;-68
2022/02/12 07:43:10;;;;;;;;;;;-0.90;98.10;;;;;;5062341;28;20400;-68
2022/02/12 07:45:35;;;;;;;;;;;-0.90;98.10;;;;;;5063013;28;20031;-68
2022/02/12 07:48:01;;;;;;;;;;;-0.80;98.10;;;;;;5056828;28;19909;-69
2022/02/12 07:50:27;;;;;;;;;;;-0.70;97.90;;;;;;5060107;28;19979;-69
2022/02/12 07:52:52;;;;;;;;;;;-0.60;97.80;;;;;;5062675;28;20156;-68
2022/02/12 07:55:18;;;;;;;;;;;-0.60;97.80;;;;;;5044878;28;19908;-68
2022/02/12 07:57:44;;;;;;;;;;;-0.50;97.80;;;;;;5044676;28;19999;-68
2022/02/12 08:00:10;;;;;;;;;;;-0.50;97.70;;;;;;5078439;28;20202;-68
2022/02/12 08:02:36;;;;;;;;;;;-0.40;97.70;;;;;;5061219;28;19954;-68
2022/02/12 08:05:02;;;;;;;;;;;-0.40;97.60;;;;;;5062749;28;20166;-69
2022/02/12 08:07:27;;;;;;;;;;;-0.30;97.50;;;;;;5051870;28;19984;-69
2022/02/12 08:10:02;;;;;;;;;;;-0.30;97.40;;;;;;5024888;28;19909;-68
2022/02/12 08:12:27;;;;;;;;;;;-0.20;97.30;;;;;;5040169;28;19984;-68
2022/02/12 08:14:55;;;;;;;;;;;-0.20;97.20;;;;;;5037768;28;19910;-68
2022/02/12 08:17:22;;;;;;;;;;;-0.10;97.10;;;;;;5021920;28;19952;-68
2022/02/12 08:19:48;;;;;;;;;;;0.00;97.00;;;;;;5022573;28;19933;-68
2022/02/12 08:22:15;;;;;;;;;;;0.00;96.90;;;;;;5022243;28;19910;-69
2022/02/12 08:24:40;;;;;;;;;;;0.10;96.80;;;;;;5022296;28;19910;-68
2022/02/12 08:27:06;;;;;;;;;;;0.20;96.90;;;;;;5022239;28;19936;-68
2022/02/12 08:29:32;;;;;;;;;;;0.20;96.80;;;;;;5041966;28;20164;-67
2022/02/12 08:31:58;;;;;;;;;;;0.20;96.80;;;;;;5037391;28;19936;-68
2022/02/12 08:34:27;;;;;;;;;;;0.30;96.70;;;;;;5056219;28;19944;-68
2022/02/12 08:36:52;;;;;;;;;;;0.40;96.70;;;;;;5057057;28;19913;-68
2022/02/12 08:39:18;;;;;;;;;;;0.50;96.70;;;;;;5046153;28;19974;-69
2022/02/12 08:41:44;;;;;;;;;;;0.50;96.70;;;;;;5061308;28;19916;-69
2022/02/12 08:44:10;;;;;;;;;;;0.60;96.60;;;;;;5061687;28;20273;-69
2022/02/12 08:46:35;;;;;;;;;;;0.70;96.60;;;;;;5061058;28;19909;-69
2022/02/12 08:49:01;;;;;;;;;;;0.70;96.50;;;;;;5043441;28;19908;-69
2022/02/12 08:51:27;;;;;;;;;;;0.80;96.50;;;;;;5060745;28;19912;-69
2022/02/12 08:53:53;;;;;;;;;;;0.90;96.50;;;;;;5042563;28;19909;-69
2022/02/12 08:56:21;;;;;;;;;;;1.00;96.50;;;;;;5043719;28;19919;-69
2022/02/12 08:58:47;;;;;;;;;;;1.00;96.40;;;;;;5042480;28;19916;-69
2022/02/12 09:01:13;;;;;;;;;;;1.20;96.40;;;;;;5043491;28;19909;-69
2022/02/12 09:03:39;;;;;;;;;;;1.30;96.10;;;;;;5042310;28;19921;-69
2022/02/12 09:06:05;;;;;;;;;;;1.60;95.70;;;;;;5043684;28;19924;-69
2022/02/12 09:08:30;;;;;;;;;;;1.80;95.30;;;;;;5059971;28;20195;-69
2022/02/12 09:10:56;;;;;;;;;;;1.90;95.10;;;;;;5043346;28;19950;-69
2022/02/12 09:13:22;;;;;;;;;;;1.90;94.90;;;;;;5042577;28;19909;-69
2022/02/12 09:15:48;;;;;;;;;;;1.90;94.70;;;;;;5043597;28;19920;-69
2022/02/12 09:18:14;;;;;;;;;;;2.10;94.50;;;;;;5042437;28;19909;-69
2022/02/12 09:20:40;;;;;;;;;;;2.30;94.10;;;;;;5060693;28;19917;-69
2022/02/12 09:23:06;;;;;;;;;;;2.40;94.20;;;;;;5060381;28;19908;-68
2022/02/12 09:25:31;;;;;;;;;;;2.50;93.90;;;;;;5042657;28;19916;-70
2022/02/12 09:27:57;;;;;;;;;;;2.60;93.80;;;;;;5060953;28;20186;-70
2022/02/12 09:30:26;;;;;;;;;;;2.70;93.30;;;;;;5041804;28;19908;-69
2022/02/12 09:32:53;;;;;;;;;;;2.90;93.20;;;;;;5026609;28;19909;-70
2022/02/12 09:35:20;;;;;;;;;;;3.00;93.10;;;;;;5059633;28;19909;-70
2022/02/12 09:37:46;;;;;;;;;;;3.00;93.10;;;;;;5043032;28;20008;-69
2022/02/12 09:40:12;;;;;;;;;;;3.10;92.90;;;;;;5059737;28;19995;-69
2022/02/12 09:42:38;;;;;;;;;;;3.20;92.40;;;;;;5041184;28;20148;-70
2022/02/12 09:45:05;;;;;;;;;;;3.20;91.90;;;;;;5036568;28;20164;-70
2022/02/12 09:47:33;;;;;;;;;;;3.40;91.00;;;;;;5060858;28;19908;-70
2022/02/12 09:49:59;;;;;;;;;;;3.80;90.70;;;;;;5053229;28;19921;-71
2022/02/12 09:52:30;;;;;;;;;;;3.80;90.30;;;;;;5005971;28;20308;-70
2022/02/12 09:54:56;;;;;;;;;;;3.90;90.30;;;;;;5040408;28;19955;-70
2022/02/12 09:57:22;;;;;;;;;;;4.00;90.20;;;;;;5040076;28;19913;-70
2022/02/12 09:59:47;;;;;;;;;;;4.10;89.20;;;;;;5037695;28;19913;-69
2022/02/12 10:02:17;;;;;;;;;;;4.20;88.10;;;;;;5037805;28;19956;-68
2022/02/12 10:04:43;;;;;;;;;;;4.30;87.80;;;;;;5017001;28;19928;-70
2022/02/12 10:07:25;;;;;;;;;;;4.40;87.40;;;;;;5018401;28;19909;-70
2022/02/12 10:10:14;;;;;;;;;;;4.50;87.40;;;;;;5007568;28;19909;-70
2022/02/12 10:12:40;;;;;;;;;;;4.70;85.70;;;;;;5006777;28;20224;-70
2022/02/12 10:15:27;;;;;;;;;;;4.80;84.60;;;;;;5038783;28;19966;-67
2022/02/12 10:17:54;;;;;;;;;;;5.00;84.00;;;;;;5046478;28;19908;-67
2022/02/12 10:20:25;;;;;;;;;;;5.10;84.10;;;;;;5064526;28;19917;-68
2022/02/12 10:22:53;;;;;;;;;;;5.30;82.80;;;;;;5064471;28;20096;-68
2022/02/12 10:25:19;;;;;;;;;;;5.40;80.70;;;;;;5046828;28;19981;-67
2022/02/12 10:27:46;;;;;;;;;;;5.50;80.10;;;;;;5046077;28;20104;-66
2022/02/12 10:30:12;;;;;;;;;;;5.60;80.70;;;;;;5062536;28;19915;-66
2022/02/12 10:32:38;;;;;;;;;;;5.80;79.00;;;;;;5045485;28;19909;-65
2022/02/12 10:35:09;;;;;;;;;;;6.00;79.10;;;;;;5045903;28;19948;-65
2022/02/12 10:37:42;;;;;;;;;;;6.20;79.00;;;;;;5033358;28;19924;-64
2022/02/12 10:40:08;;;;;;;;;;;6.40;77.80;;;;;;5027127;28;19966;-66
2022/02/12 10:42:39;;;;;;;;;;;6.60;75.70;;;;;;5044859;28;19909;-66
2022/02/12 10:45:05;;;;;;;;;;;6.90;75.40;;;;;;5026943;28;19921;-66
2022/02/12 10:47:31;;;;;;;;;;;7.10;72.90;;;;;;5043790;28;19913;-65
2022/02/12 10:49:57;;;;;;;;;;;7.40;71.10;;;;;;5042310;28;19910;-65
2022/02/12 10:52:23;;;;;;;;;;;7.60;70.60;;;;;;5044023;28;19916;-64
2022/02/12 10:54:50;;;;;;;;;;;8.00;69.80;;;;;;5063557;28;19968;-66
2022/02/12 10:57:16;;;;;;;;;;;8.30;65.20;;;;;;5045368;28;19959;-63
2022/02/12 10:59:43;;;;;;;;;;;9.00;64.40;;;;;;5053063;28;20115;-64
2022/02/12 11:02:10;;;;;;;;;;;10.40;57.00;;;;;;5043541;28;20120;-65
2022/02/12 11:04:38;;;;;;;;;;;12.10;50.30;;;;;;5027636;28;19968;-65
2022/02/12 11:07:05;;;;;;;;;;;13.20;46.90;;;;;;5063868;28;19955;-65
2022/02/12 11:09:31;;;;;;;;;;;14.60;43.00;;;;;;5063674;28;19953;-65
2022/02/12 11:12:06;;;;;;;;;;;15.30;41.90;;;;;;5044650;28;19979;-65
2022/02/12 11:14:33;;;;;;;;;;;16.60;39.50;;;;;;5045849;28;19939;-65
2022/02/12 11:17:29;;;;;;;;;;;17.70;37.20;;;;;;5061597;28;19939;-65
2022/02/12 11:19:55;;;;;;;;;;;18.30;36.00;;;;;;5050327;28;20211;-65
2022/02/12 11:22:20;;;;;;;;;;;19.30;33.70;;;;;;5062979;28;19908;-65
2022/02/12 11:24:46;;;;;;;;;;;20.20;33.20;;;;;;5063567;28;19909;-65
2022/02/12 11:27:19;;;;;;;;;;;20.60;31.00;;;;;;5063405;28;20229;-66
2022/02/12 11:29:46;;;;;;;;;;;20.90;31.70;;;;;;5062992;28;19954;-65
2022/02/12 11:32:12;;;;;;;;;;;21.70;29.90;;;;;;5049575;28;20038;-64
2022/02/12 11:34:50;;;;;;;;;;;22.70;28.00;;;;;;5042446;28;20005;-64
2022/02/12 11:37:17;;;;;;;;;;;23.10;27.70;;;;;;5041689;28;19947;-65
2022/02/12 11:40:22;;;;;;;;;;;21.30;28.70;;;;;;5042660;28;20175;-66
2022/02/12 11:42:51;;;;;;;;;;;21.30;28.40;;;;;;5042741;28;20328;-65
2022/02/12 11:45:41;;;;;;;;;;;19.60;30.20;;;;;;5041734;28;19937;-65
2022/02/12 11:48:25;;;;;;;;;;;18.60;31.00;;;;;;5061536;28;20068;-66
2022/02/12 11:51:01;;;;;;;;;;;18.10;31.00;;;;;;5062520;28;19940;-65
2022/02/12 11:53:54;;;;;;;;;;;18.30;30.60;;;;;;5062308;28;19909;-66
2022/02/12 11:56:20;;;;;;;;;;;18.70;30.40;;;;;;5062328;28;19921;-65
2022/02/12 11:58:45;;;;;;;;;;;17.90;31.30;;;;;;5062167;28;19909;-66
2022/02/12 12:01:29;;;;;;;;;;;18.10;31.30;;;;;;5061952;28;19909;-65
2022/02/12 12:04:11;;;;;;;;;;;17.80;32.10;;;;;;5062340;28;20027;-66
2022/02/12 12:06:56;;;;;;;;;;;17.30;32.60;;;;;;5062543;28;20087;-66
2022/02/12 12:09:22;;;;;;;;;;;16.80;32.60;;;;;;5062187;28;20204;-65
2022/02/12 12:12:11;;;;;;;;;;;15.70;34.40;;;;;;5027686;28;19947;-66
2022/02/12 12:14:37;;;;;;;;;;;15.70;35.10;;;;;;5060753;28;19909;-65
2022/02/12 12:17:03;;;;;;;;;;;16.60;34.10;;;;;;5061140;28;19919;-66
2022/02/12 12:19:32;;;;;;;;;;;16.70;34.00;;;;;;5061775;28;19944;-65
2022/02/12 12:21:59;;;;;;;;;;;17.00;33.10;;;;;;5044245;28;20202;-66
2022/02/12 12:24:25;;;;;;;;;;;17.30;33.20;;;;;;5062112;28;19978;-63
2022/02/12 12:26:50;;;;;;;;;;;17.70;32.30;;;;;;5043572;28;20227;-64
2022/02/12 12:32:06;;;;;;;;;;;19.20;30.30;;;;;;5052032;28;19916;-65
2022/02/12 12:34:32;;;;;;;;;;;19.70;30.10;;;;;;5061646;28;19916;-65
2022/02/12 12:36:58;;;;;;;;;;;20.40;29.40;;;;;;5061288;28;20108;-63
2022/02/12 12:39:35;;;;;;;;;;;21.80;28.00;;;;;;5027000;28;19912;-64
2022/02/12 12:42:01;;;;;;;;;;;21.90;27.60;;;;;;5060390;28;19928;-65
2022/02/12 12:44:27;;;;;;;;;;;22.10;27.00;;;;;;5042818;28;20047;-65
2022/02/12 12:46:55;;;;;;;;;;;20.80;28.10;;;;;;5041483;28;19944;-64
2022/02/12 12:49:33;;;;;;;;;;;20.40;27.70;;;;;;5041565;28;19909;-64
2022/02/12 12:52:02;;;;;;;;;;;19.90;27.70;;;;;;5041422;28;20180;-64
2022/02/12 12:54:31;;;;;;;;;;;19.30;28.20;;;;;;5042125;28;19947;-65
2022/02/12 12:56:57;;;;;;;;;;;19.30;27.60;;;;;;5038363;28;19952;-67
2022/02/12 12:59:23;;;;;;;;;;;20.30;26.90;;;;;;5036066;28;19913;-67
2022/02/12 13:02:01;;;;;;;;;;;21.50;26.20;;;;;;5050605;28;19944;-67
2022/02/12 13:04:27;;;;;;;;;;;22.90;25.40;;;;;;5049617;28;19916;-67
2022/02/12 13:06:55;;;;;;;;;;;24.30;23.60;;;;;;5012997;28;20014;-68
2022/02/12 13:09:20;;;;;;;;;;;24.80;23.10;;;;;;5029885;28;19924;-64
2022/02/12 13:11:46;;;;;;;;;;;24.60;23.70;;;;;;5018665;28;20199;-72
2022/02/12 13:14:12;;;;;;;;;;;24.70;22.90;;;;;;5034932;28;19915;-68
2022/02/12 13:16:39;;;;;;;;;;;25.60;22.50;;;;;;5039059;28;19920;-71
2022/02/12 13:19:15;;;;;;;;;;;25.40;21.50;;;;;;5056725;28;19916;-68
2022/02/12 13:21:54;;;;;;;;;;;25.20;22.00;;;;;;5043250;28;19909;-70
2022/02/12 13:24:20;;;;;;;;;;;25.70;22.20;;;;;;5043536;28;19951;-69
2022/02/12 13:26:46;;;;;;;;;;;26.20;21.80;;;;;;5061332;28;19909;-69
2022/02/12 13:29:24;;;;;;;;;;;26.30;22.40;;;;;;5023738;28;19916;-66
2022/02/12 13:31:54;;;;;;;;;;;26.20;22.30;;;;;;5043689;28;19983;-65
2022/02/12 13:34:20;;;;;;;;;;;28.00;21.20;;;;;;5057990;28;19917;-65
2022/02/12 13:36:47;;;;;;;;;;;26.30;21.60;;;;;;5040623;28;19913;-66
2022/02/12 13:39:19;;;;;;;;;;;26.70;22.20;;;;;;5039570;28;20250;-66
2022/02/12 13:41:45;;;;;;;;;;;25.10;22.30;;;;;;5040440;28;19955;-66
2022/02/12 13:44:11;;;;;;;;;;;24.60;22.60;;;;;;5023029;28;19944;-65
2022/02/12 13:46:38;;;;;;;;;;;23.20;23.60;;;;;;5023052;28;19916;-65
2022/02/12 13:49:15;;;;;;;;;;;23.20;23.60;;;;;;5040961;28;20318;-66
2022/02/12 13:51:54;;;;;;;;;;;23.10;23.40;;;;;;5023000;28;19955;-66
2022/02/12 13:54:21;;;;;;;;;;;22.90;24.10;;;;;;5023541;28;19936;-66
2022/02/12 13:56:53;;;;;;;;;;;23.40;22.70;;;;;;5040452;28;19948;-66
2022/02/12 13:59:20;;;;;;;;;;;22.50;23.40;;;;;;5022672;28;19909;-66
2022/02/12 14:01:46;;;;;;;;;;;21.20;24.30;;;;;;5039167;28;20135;-67
2022/02/12 14:04:13;;;;;;;;;;;21.60;24.10;;;;;;5040530;28;20206;-66
2022/02/12 14:06:39;;;;;;;;;;;21.10;24.70;;;;;;5040705;28;19909;-66
2022/02/12 14:09:05;;;;;;;;;;;20.20;25.40;;;;;;5042191;28;20231;-66
2022/02/12 14:11:30;;;;;;;;;;;19.40;26.40;;;;;;5060279;28;19946;-66
2022/02/12 14:13:56;;;;;;;;;;;17.20;28.40;;;;;;5042816;28;19955;-66
2022/02/12 14:16:22;;;;;;;;;;;15.90;29.80;;;;;;5059793;28;19913;-66
2022/02/12 14:18:48;;;;;;;;;;;15.30;31.10;;;;;;5058577;28;19916;-69
2022/02/12 14:21:13;;;;;;;;;;;14.20;32.70;;;;;;5059394;28;19908;-68
2022/02/12 14:23:39;;;;;;;;;;;13.40;34.20;;;;;;5060060;28;20108;-67
2022/02/12 14:26:05;;;;;;;;;;;12.50;35.80;;;;;;5060216;28;20023;-66
2022/02/12 14:28:31;;;;;;;;;;;11.90;37.90;;;;;;5031234;28;20154;-66
2022/02/12 14:30:57;;;;;;;;;;;11.40;39.10;;;;;;5020171;28;19910;-67